Terminal Aerodrome Forecast
Issued by NWS

Home | Current Version | Previous Version | Text Only | Print | Product List | Glossary On
Versions: 1 2 3 4 5 6 7 8 9 10 11 12 13 14 15 16 17 18
000
FTUS43 KLSX 262300
TAFCPS
TAF
KCPS 262320Z 2700/2724 17010KT P6SM BKN045
     FM271000 20008KT P6SM OVC015 PROB30 2711/2715 P6SM -RA
     FM271700 28012KT P6SM OVC015
     FM272000 30010KT P6SM OVC040=

USA.gov is the U.S. government's official web portal to all federal, state and local government web resources and services.